Time;durP1;ratioP1;P1;durP2;ratioP2;P2;SDS_P1;SDS_P2;PMS_P1;PMS_P2;Temp;Humidity;BMP_temperature;BMP_pressure;BME280_temperature;BME280_humidity;BME280_pressure;Samples;Min_cycle;Max_cycle;Signal;HPM_P1;HPM_P2
2023/05/12 00:00:29;;;;;;;17.23;12.88;;;7.80;1.00;8.20;93780.00;;;;7409701;19;20152;-79
2023/05/12 00:02:56;;;;;;;16.10;12.77;;;7.80;1.00;8.00;93759.00;;;;7408761;19;20160;-82
2023/05/12 00:05:30;;;;;;;17.50;12.77;;;7.80;1.00;8.10;93740.00;;;;7404856;19;20634;-79
2023/05/12 00:07:57;;;;;;;17.97;13.60;;;7.80;1.00;8.20;93735.00;;;;7404981;19;20144;-79
2023/05/12 00:10:31;;;;;;;18.10;13.75;;;7.80;1.00;8.10;93726.00;;;;7404808;19;20137;-79
2023/05/12 00:13:12;;;;;;;16.88;11.73;;;7.80;1.00;8.20;93756.00;;;;7405516;19;20169;-79
2023/05/12 00:15:46;;;;;;;16.13;12.00;;;7.80;1.00;8.20;93767.00;;;;7408438;19;20456;-78
2023/05/12 00:18:23;;;;;;;16.43;11.50;;;7.70;1.00;8.20;93760.00;;;;7406984;19;20147;-80
2023/05/12 00:20:50;;;;;;;16.77;12.60;;;7.70;5.40;8.10;93717.00;;;;7408849;19;20132;-79
2023/05/12 00:23:17;;;;;;;19.33;12.30;;;7.80;40.80;8.20;93758.00;;;;7406880;19;20151;-81
2023/05/12 00:25:51;;;;;;;21.55;12.48;;;7.80;49.40;8.20;93749.00;;;;7411427;19;20155;-80
2023/05/12 00:28:20;;;;;;;17.43;12.17;;;7.80;76.70;8.10;93748.00;;;;7410860;19;20470;-82
2023/05/12 00:30:53;;;;;;;18.87;12.20;;;7.70;99.90;8.10;93701.00;;;;7409724;19;20627;-81
2023/05/12 00:33:21;;;;;;;23.73;15.17;;;7.70;99.90;8.10;93755.00;;;;7410124;19;20572;-81
2023/05/12 00:35:55;;;;;;;19.05;12.75;;;7.70;99.90;8.10;93725.00;;;;7411459;19;20144;-80
2023/05/12 00:38:22;;;;;;;23.83;14.45;;;7.70;99.90;8.10;93729.00;;;;7408699;19;20452;-80
2023/05/12 00:40:56;;;;;;;20.10;13.10;;;7.70;99.90;8.10;93758.00;;;;7408984;19;20173;-81
2023/05/12 00:43:30;;;;;;;20.20;13.33;;;7.70;99.90;8.20;93713.00;;;;7404933;19;20153;-82
2023/05/12 00:45:59;;;;;;;18.80;13.48;;;7.70;99.90;8.10;93720.00;;;;7412343;19;20514;-81
2023/05/12 00:48:33;;;;;;;23.63;13.05;;;7.70;99.90;8.20;93727.00;;;;7412628;19;20163;-81
2023/05/12 00:51:03;;;;;;;22.80;14.27;;;7.70;99.90;8.10;93704.00;;;;7408876;19;20133;-81
2023/05/12 00:53:37;;;;;;;29.63;16.40;;;7.70;99.90;8.20;93752.00;;;;7410561;19;20188;-80
2023/05/12 00:56:17;;;;;;;24.80;14.47;;;7.70;99.90;8.30;93712.00;;;;7411640;19;20120;-81
2023/05/12 00:58:51;;;;;;;21.93;15.03;;;7.70;99.90;8.30;93720.00;;;;7409541;19;20136;-82
2023/05/12 01:01:24;;;;;;;22.73;14.20;;;7.70;99.90;8.20;93717.00;;;;7405174;19;20148;-80
2023/05/12 01:04:13;;;;;;;21.13;13.25;;;7.70;99.90;8.20;93740.00;;;;7394139;19;20606;-74
2023/05/12 01:07:25;;;;;;;24.23;13.97;;;7.70;99.90;8.20;93745.00;;;;7398305;19;20613;-73
2023/05/12 01:09:58;;;;;;;21.35;13.50;;;7.70;99.90;8.20;93742.00;;;;7398566;19;20516;-74
2023/05/12 01:12:26;;;;;;;23.45;12.85;;;7.70;99.90;8.20;93729.00;;;;7395979;19;20140;-73
2023/05/12 01:15:00;;;;;;;24.90;14.47;;;7.70;99.90;8.20;93750.00;;;;7399508;19;20154;-73
2023/05/12 01:17:32;;;;;;;22.33;13.67;;;7.70;99.90;8.20;93717.00;;;;7399355;19;20128;-74
2023/05/12 01:20:09;;;;;;;25.80;14.98;;;7.70;99.90;8.30;93755.00;;;;7400590;19;20131;-74
2023/05/12 01:22:38;;;;;;;26.87;14.73;;;7.70;99.90;8.30;93727.00;;;;7398135;19;20497;-73
2023/05/12 01:25:13;;;;;;;24.37;13.93;;;7.70;99.90;8.40;93743.00;;;;7400795;19;20143;-73
2023/05/12 01:27:41;;;;;;;23.90;14.80;;;7.70;99.90;8.30;93720.00;;;;7398460;19;20152;-74
2023/05/12 01:30:14;;;;;;;21.05;14.05;;;7.70;99.90;8.40;93710.00;;;;7398242;19;20144;-73
2023/05/12 01:32:49;;;;;;;20.17;13.27;;;7.80;99.90;8.50;93739.00;;;;7396117;19;20133;-73
2023/05/12 01:35:17;;;;;;;23.17;13.57;;;7.80;99.90;8.50;93752.00;;;;7398310;19;20133;-73
2023/05/12 01:37:51;;;;;;;20.30;13.17;;;7.80;99.90;8.50;93741.00;;;;7398209;19;20132;-73
2023/05/12 01:40:25;;;;;;;22.90;13.20;;;7.90;99.90;8.50;93721.00;;;;7399274;19;20133;-73
2023/05/12 01:42:59;;;;;;;17.73;11.85;;;7.90;99.90;8.50;93716.00;;;;7397597;19;20165;-73
2023/05/12 01:45:33;;;;;;;20.13;11.95;;;7.90;99.90;8.50;93733.00;;;;7399839;19;20132;-73
2023/05/12 01:48:07;;;;;;;19.25;11.88;;;7.90;99.90;8.50;93744.00;;;;7394512;19;20163;-73
2023/05/12 01:50:34;;;;;;;18.70;11.70;;;7.90;99.90;8.50;93738.00;;;;7396077;19;20129;-73
2023/05/12 01:53:11;;;;;;;19.65;12.07;;;7.80;99.90;8.50;93705.00;;;;7397531;19;20150;-73
2023/05/12 01:55:44;;;;;;;18.03;11.50;;;7.80;99.90;8.50;93742.00;;;;7397386;19;20144;-73
2023/05/12 01:58:11;;;;;;;18.30;12.02;;;7.80;99.90;8.40;93739.00;;;;7396083;19;20149;-73
2023/05/12 02:00:45;;;;;;;23.92;12.43;;;7.80;99.90;8.40;93731.00;;;;7396651;19;20133;-73
2023/05/12 02:03:25;;;;;;;20.42;14.07;;;7.80;1.00;8.40;93737.00;;;;7395363;19;20165;-73
2023/05/12 02:05:52;;;;;;;18.90;12.30;;;7.80;1.00;8.40;93713.00;;;;7397326;19;20136;-73
2023/05/12 02:08:26;;;;;;;19.20;12.32;;;7.80;1.00;8.40;93741.00;;;;7397698;19;20158;-73
2023/05/12 02:11:07;;;;;;;23.17;12.00;;;7.80;1.00;8.40;93730.00;;;;7397217;19;20602;-73
2023/05/12 02:13:44;;;;;;;15.57;10.37;;;7.80;1.00;8.40;93730.00;;;;7396913;19;20140;-73
2023/05/12 02:16:18;;;;;;;15.33;9.47;;;7.80;1.00;8.50;93731.00;;;;7397735;19;20152;-72
2023/05/12 02:18:45;;;;;;;12.88;8.50;;;7.80;1.00;8.50;93717.00;;;;7395405;19;20166;-73
2023/05/12 02:21:19;;;;;;;18.85;10.20;;;7.80;1.00;8.50;93735.00;;;;7396206;19;20132;-72
2023/05/12 02:23:46;;;;;;;19.98;12.65;;;7.80;1.00;8.30;93738.00;;;;7396689;19;20125;-73
2023/05/12 02:26:20;;;;;;;19.20;12.80;;;7.90;1.00;8.40;93738.00;;;;7397208;19;20165;-73
2023/05/12 02:28:54;;;;;;;24.55;14.18;;;7.90;1.00;8.40;93728.00;;;;7396961;19;20189;-73
2023/05/12 02:31:28;;;;;;;20.95;12.65;;;7.90;1.00;8.40;93734.00;;;;7397925;19;20153;-73
2023/05/12 02:34:02;;;;;;;19.23;12.65;;;7.80;1.00;8.30;93736.00;;;;7396165;19;20124;-73
2023/05/12 02:36:36;;;;;;;19.48;12.18;;;7.80;1.00;8.30;93727.00;;;;7397227;19;20149;-73
2023/05/12 02:39:10;;;;;;;18.88;12.73;;;7.80;1.00;8.20;93726.00;;;;7396063;19;20145;-73
2023/05/12 02:41:44;;;;;;;23.53;13.07;;;7.80;1.00;8.30;93741.00;;;;7393279;19;20129;-73
2023/05/12 02:44:21;;;;;;;19.35;11.48;;;7.80;1.00;8.40;93734.00;;;;7399705;19;20485;-73
2023/05/12 02:46:54;;;;;;;18.23;11.83;;;7.70;1.00;8.40;93731.00;;;;7403606;19;20144;-73
2023/05/12 02:49:21;;;;;;;19.30;12.37;;;7.80;1.00;8.40;93724.00;;;;7403048;19;20599;-73
2023/05/12 02:51:55;;;;;;;21.60;13.20;;;7.70;1.00;8.30;93727.00;;;;7404704;19;20477;-73
2023/05/12 02:54:22;;;;;;;22.00;12.98;;;7.70;1.00;8.20;93740.00;;;;7403242;19;20133;-73
2023/05/12 02:56:57;;;;;;;21.75;12.68;;;7.70;1.00;8.20;93702.00;;;;7404419;19;20144;-74
2023/05/12 02:59:24;;;;;;;20.13;12.87;;;7.70;1.00;8.10;93730.00;;;;7404123;19;20129;-74
2023/05/12 03:02:10;;;;;;;18.33;12.50;;;7.70;1.00;8.30;93731.00;;;;7401467;19;20180;-74
2023/05/12 03:04:44;;;;;;;21.67;12.55;;;7.70;1.00;8.30;93699.00;;;;7404814;19;20472;-73
2023/05/12 03:07:18;;;;;;;22.38;12.85;;;7.70;1.00;8.40;93728.00;;;;7403352;19;20149;-74
2023/05/12 03:09:45;;;;;;;20.13;12.27;;;7.70;1.00;8.40;93710.00;;;;7402393;19;20141;-74
2023/05/12 03:12:19;;;;;;;17.63;11.50;;;7.70;1.00;8.40;93709.00;;;;7403179;19;20152;-74
2023/05/12 03:14:46;;;;;;;18.23;11.88;;;7.70;1.00;8.40;93708.00;;;;7402693;19;20139;-73
2023/05/12 03:17:20;;;;;;;18.73;11.33;;;7.70;1.00;8.50;93736.00;;;;7402070;19;20144;-73
2023/05/12 03:19:47;;;;;;;23.40;14.20;;;7.80;1.00;8.50;93728.00;;;;7404267;19;20133;-74
2023/05/12 03:22:21;;;;;;;34.30;15.13;;;7.80;1.00;8.60;93732.00;;;;7402751;19;20141;-73
2023/05/12 03:24:55;;;;;;;31.17;15.43;;;7.80;1.00;8.50;93725.00;;;;7402222;19;20149;-74
2023/05/12 03:27:31;;;;;;;27.48;16.42;;;7.80;1.00;8.50;93737.00;;;;7402064;19;20141;-73
2023/05/12 03:29:59;;;;;;;36.30;18.67;;;7.80;1.00;8.60;93724.00;;;;7402865;19;20170;-74
2023/05/12 03:32:33;;;;;;;35.70;17.90;;;7.90;1.00;8.60;93715.00;;;;7402362;19;20157;-75
2023/05/12 03:35:00;;;;;;;43.15;20.50;;;7.90;1.00;8.60;93728.00;;;;7402228;19;20161;-74
2023/05/12 03:37:34;;;;;;;31.98;18.80;;;7.90;1.00;8.60;93733.00;;;;7401024;19;20154;-74
2023/05/12 03:40:01;;;;;;;45.90;20.42;;;7.90;1.00;8.60;93730.00;;;;7401773;19;20149;-74
2023/05/12 03:42:35;;;;;;;37.67;19.35;;;7.90;1.00;8.60;93723.00;;;;7403911;19;20600;-74
2023/05/12 03:45:04;;;;;;;32.78;18.50;;;7.90;1.00;8.50;93739.00;;;;7403160;19;20131;-74
2023/05/12 03:47:39;;;;;;;41.63;19.88;;;7.90;1.00;8.50;93699.00;;;;7403508;19;20603;-74
2023/05/12 03:50:12;;;;;;;32.83;18.42;;;7.90;2.30;8.50;93710.00;;;;7399619;19;20153;-74
2023/05/12 03:52:46;;;;;;;30.95;18.40;;;7.90;6.60;8.60;93714.00;;;;7402041;19;20152;-74
2023/05/12 03:55:13;;;;;;;31.02;18.17;;;7.90;9.60;8.60;93721.00;;;;7400474;19;20509;-74
2023/05/12 03:57:48;;;;;;;30.67;16.38;;;7.90;11.80;8.50;93687.00;;;;7401632;19;20191;-74
2023/05/12 04:00:21;;;;;;;45.87;20.27;;;7.90;15.70;8.60;93705.00;;;;7402036;19;20132;-74
2023/05/12 04:02:49;;;;;;;37.33;18.80;;;7.90;19.20;8.60;93728.00;;;;7401314;19;20566;-74
2023/05/12 04:05:23;;;;;;;76.25;25.52;;;8.00;25.20;8.60;93731.00;;;;7400715;19;20150;-74
2023/05/12 04:07:50;;;;;;;40.25;20.85;;;7.90;27.80;8.60;93721.00;;;;7401204;19;20165;-74
2023/05/12 04:10:24;;;;;;;40.23;18.80;;;7.90;30.30;8.60;93683.00;;;;7402571;19;20148;-74
2023/05/12 04:12:58;;;;;;;43.67;20.45;;;7.90;35.50;8.60;93733.00;;;;7400517;19;20151;-74
2023/05/12 04:15:26;;;;;;;36.20;18.13;;;8.00;40.90;8.70;93713.00;;;;7400684;19;20141;-74
2023/05/12 04:18:04;;;;;;;42.05;18.98;;;8.00;45.60;8.80;93713.00;;;;7399834;19;20542;-74
2023/05/12 04:20:37;;;;;;;37.00;19.15;;;8.00;49.80;8.70;93703.00;;;;7400461;19;20144;-74
2023/05/12 04:23:11;;;;;;;31.23;16.73;;;8.00;76.80;8.80;93729.00;;;;7402240;19;20137;-74
2023/05/12 04:25:39;;;;;;;30.10;16.08;;;8.10;62.30;8.80;93712.00;;;;7400468;19;20212;-74
2023/05/12 04:28:13;;;;;;;35.47;18.20;;;8.10;69.30;8.80;93729.00;;;;7402408;19;20192;-74
2023/05/12 04:30:41;;;;;;;32.33;19.02;;;8.10;73.30;8.80;93732.00;;;;7401712;19;20137;-74
2023/05/12 04:33:15;;;;;;;46.43;20.10;;;8.10;79.60;8.80;93725.00;;;;7401134;19;20148;-74
2023/05/12 04:35:42;;;;;;;45.28;19.10;;;8.10;84.20;8.80;93741.00;;;;7400490;19;20491;-74
2023/05/12 04:38:16;;;;;;;48.55;17.98;;;8.10;81.00;8.80;93741.00;;;;7398422;19;20641;-74
2023/05/12 04:40:44;;;;;;;121.60;22.27;;;8.00;80.70;8.80;93741.00;;;;7402039;19;20509;-74
2023/05/12 04:43:17;;;;;;;203.05;21.00;;;8.10;83.60;8.80;93735.00;;;;7401233;19;20174;-73
2023/05/12 04:45:54;;;;;;;65.88;19.90;;;8.10;88.00;8.80;93721.00;;;;7401661;19;20121;-74
2023/05/12 04:48:28;;;;;;;81.28;18.90;;;8.10;90.20;8.80;93746.00;;;;7399907;19;20491;-74
2023/05/12 04:51:02;;;;;;;33.95;16.25;;;8.10;95.20;8.80;93740.00;;;;7398959;19;20153;-74
2023/05/12 04:53:37;;;;;;;51.87;16.97;;;8.10;97.30;8.90;93749.00;;;;7397767;19;20132;-74
2023/05/12 04:56:10;;;;;;;49.08;16.58;;;8.10;99.90;8.90;93725.00;;;;7399815;19;20125;-74
2023/05/12 04:58:39;;;;;;;34.15;15.88;;;8.20;99.90;8.90;93745.00;;;;7400094;19;20121;-74
2023/05/12 05:01:13;;;;;;;29.17;15.07;;;8.20;99.90;8.90;93753.00;;;;7399570;19;20499;-74
2023/05/12 05:03:47;;;;;;;28.05;14.15;;;8.20;99.90;8.90;93726.00;;;;7380775;19;20292;-73
2023/05/12 05:06:28;;;;;;;33.10;16.40;;;8.20;99.90;8.90;93761.00;;;;7376559;19;20191;-72
2023/05/12 05:08:56;;;;;;;59.97;17.20;;;8.20;99.90;8.90;93751.00;;;;7383870;19;20125;-72
2023/05/12 05:11:29;;;;;;;32.30;15.73;;;8.20;99.90;8.90;93750.00;;;;7383004;19;20139;-72
2023/05/12 05:14:03;;;;;;;32.00;15.20;;;8.20;99.90;8.90;93756.00;;;;7382861;19;20148;-73
2023/05/12 05:16:58;;;;;;;28.23;16.33;;;8.20;99.90;8.90;93738.00;;;;7385264;19;20157;-73
2023/05/12 05:19:33;;;;;;;29.33;16.52;;;8.20;99.90;9.00;93752.00;;;;7382056;19;20151;-73
2023/05/12 05:22:29;;;;;;;29.27;16.05;;;8.20;99.90;8.80;93760.00;;;;7385600;19;20137;-71
2023/05/12 05:25:03;;;;;;;32.50;17.53;;;8.40;99.90;9.00;93755.00;;;;7384513;19;20260;-73
2023/05/12 05:27:38;;;;;;;35.08;17.48;;;8.40;99.90;9.20;93753.00;;;;7385573;19;20136;-73
2023/05/12 05:30:08;;;;;;;31.95;16.88;;;8.40;99.90;9.30;93739.00;;;;7384375;19;20133;-73
2023/05/12 05:32:41;;;;;;;30.65;16.85;;;8.40;99.90;9.30;93766.00;;;;7384058;19;20251;-72
2023/05/12 05:35:09;;;;;;;27.40;16.85;;;8.50;99.90;9.30;93737.00;;;;7382145;19;20163;-72
2023/05/12 05:37:44;;;;;;;22.15;14.63;;;8.60;99.90;9.30;93768.00;;;;7383548;19;20163;-73
2023/05/12 05:40:11;;;;;;;23.35;15.05;;;8.70;99.90;9.40;93747.00;;;;7384326;19;20605;-73
2023/05/12 05:42:46;;;;;;;24.13;15.48;;;8.70;99.90;9.60;93759.00;;;;7384529;19;20255;-72
2023/05/12 05:45:14;;;;;;;22.80;15.82;;;8.80;99.90;9.70;93756.00;;;;7383410;19;20147;-73
2023/05/12 05:47:51;;;;;;;26.80;15.57;;;8.90;99.90;9.70;93770.00;;;;7384381;19;20207;-73
2023/05/12 05:50:19;;;;;;;22.42;14.90;;;9.00;99.90;9.70;93764.00;;;;7385019;19;20492;-73
2023/05/12 05:52:46;;;;;;;21.63;14.38;;;9.00;99.90;9.50;93773.00;;;;7381187;19;20132;-72
2023/05/12 05:55:21;;;;;;;21.42;14.00;;;9.00;99.90;9.60;93756.00;;;;7383296;19;20595;-72
2023/05/12 05:57:55;;;;;;;25.45;15.93;;;9.00;99.90;9.70;93775.00;;;;7383960;19;20128;-71
2023/05/12 06:00:23;;;;;;;23.20;15.77;;;9.00;99.90;9.70;93767.00;;;;7385096;19;20485;-73
2023/05/12 06:02:58;;;;;;;20.15;14.10;;;9.00;99.90;9.70;93772.00;;;;7382214;19;20171;-73
2023/05/12 06:05:40;;;;;;;16.83;13.85;;;9.00;99.90;9.70;93777.00;;;;7383341;19;20144;-74
2023/05/12 06:08:12;;;;;;;18.23;13.25;;;9.00;99.90;9.90;93781.00;;;;7386109;19;20206;-73
2023/05/12 06:10:45;;;;;;;15.55;11.43;;;9.00;99.90;9.90;93787.00;;;;7386887;19;20179;-74
2023/05/12 06:13:13;;;;;;;12.15;10.55;;;9.00;99.90;10.00;93778.00;;;;7384786;19;20159;-74
2023/05/12 06:15:48;;;;;;;13.30;10.75;;;9.20;99.90;10.00;93774.00;;;;7385018;19;20120;-74
2023/05/12 06:18:24;;;;;;;17.55;11.98;;;9.20;38.80;10.00;93777.00;;;;7383518;19;20144;-73
2023/05/12 06:20:58;;;;;;;13.52;11.20;;;9.20;1.00;10.10;93779.00;;;;7383518;19;20137;-73
2023/05/12 06:23:26;;;;;;;15.38;11.25;;;9.20;1.00;10.20;93791.00;;;;7384260;19;20181;-73
2023/05/12 06:26:01;;;;;;;13.30;10.48;;;9.30;1.00;10.20;93787.00;;;;7383649;19;20144;-73
2023/05/12 06:28:36;;;;;;;14.32;9.95;;;9.40;1.00;10.30;93776.00;;;;7384137;19;20623;-73
2023/05/12 06:31:10;;;;;;;13.63;9.02;;;9.50;1.00;10.40;93792.00;;;;7386275;19;20132;-73
2023/05/12 06:33:38;;;;;;;10.57;8.77;;;9.50;1.00;10.30;93763.00;;;;7383951;19;20599;-73
2023/05/12 06:36:13;;;;;;;9.68;8.15;;;9.50;99.90;10.20;93789.00;;;;7384306;19;20148;-72
2023/05/12 06:38:40;;;;;;;12.77;9.52;;;9.50;99.90;10.50;93771.00;;;;7384159;19;20169;-73
2023/05/12 06:41:14;;;;;;;14.95;8.88;;;9.50;99.90;10.70;93780.00;;;;7383861;19;20160;-73
2023/05/12 06:43:49;;;;;;;12.45;8.98;;;9.50;85.80;10.60;93774.00;;;;7382776;19;20145;-73
2023/05/12 06:46:23;;;;;;;11.73;9.50;;;9.60;58.80;10.80;93785.00;;;;7383211;19;20152;-73
2023/05/12 06:48:57;;;;;;;12.00;8.55;;;9.80;1.00;10.90;93792.00;;;;7378988;19;20579;-73
2023/05/12 06:51:24;;;;;;;10.20;8.73;;;9.90;1.00;10.90;93775.00;;;;7384143;19;20129;-74
2023/05/12 06:54:00;;;;;;;10.13;8.18;;;9.80;99.90;10.80;93765.00;;;;7382846;19;20595;-72
2023/05/12 06:56:35;;;;;;;8.70;7.43;;;9.80;74.60;10.90;93779.00;;;;7383185;19;20159;-72
2023/05/12 06:59:10;;;;;;;7.40;6.65;;;9.90;84.10;10.80;93793.00;;;;7384023;19;20144;-73
2023/05/12 07:01:46;;;;;;;8.18;7.22;;;9.90;2.40;11.00;93791.00;;;;7382524;19;21336;-74
2023/05/12 07:04:21;;;;;;;10.00;7.25;;;10.00;1.00;11.10;93792.00;;;;7383084;19;20245;-74
2023/05/12 07:06:55;;;;;;;8.68;7.40;;;10.00;1.00;11.10;93779.00;;;;7383594;19;20165;-73
2023/05/12 07:09:30;;;;;;;10.70;8.80;;;10.00;1.00;11.30;93790.00;;;;7382921;19;20186;-73
2023/05/12 07:12:06;;;;;;;9.68;8.30;;;10.10;1.40;11.20;93783.00;;;;7385237;19;20186;-72
2023/05/12 07:14:42;;;;;;;10.30;7.90;;;10.10;99.90;11.30;93763.00;;;;7383740;19;20148;-73
2023/05/12 07:17:16;;;;;;;10.02;8.57;;;10.20;99.90;11.70;93784.00;;;;7382755;19;20156;-73
2023/05/12 07:19:51;;;;;;;10.75;8.50;;;10.40;99.90;11.90;93792.00;;;;7383130;19;20156;-74
2023/05/12 07:22:19;;;;;;;13.07;8.57;;;10.60;99.90;12.10;93793.00;;;;7381159;19;20161;-73
2023/05/12 07:24:55;;;;;;;10.80;8.20;;;10.80;99.90;12.30;93794.00;;;;7380801;19;20592;-73
2023/05/12 07:27:23;;;;;;;8.23;7.18;;;10.80;1.00;11.80;93796.00;;;;7382126;19;20520;-73
2023/05/12 07:29:57;;;;;;;7.85;6.15;;;10.70;1.00;11.50;93798.00;;;;7385065;19;20148;-74
2023/05/12 07:32:27;;;;;;;8.55;6.82;;;10.60;1.00;11.40;93784.00;;;;7389286;19;20488;-74
2023/05/12 07:35:02;;;;;;;8.80;7.10;;;10.60;1.00;11.50;93788.00;;;;7388421;19;20151;-74
2023/05/12 07:37:29;;;;;;;8.10;7.20;;;10.50;1.00;11.30;93776.00;;;;7388096;19;20150;-74
2023/05/12 07:40:05;;;;;;;8.68;7.03;;;10.50;1.00;11.30;93775.00;;;;7389142;19;20163;-74
2023/05/12 07:42:39;;;;;;;8.82;7.43;;;10.50;1.00;11.50;93791.00;;;;7388088;19;20144;-73
2023/05/12 07:45:12;;;;;;;6.65;5.97;;;10.60;1.00;11.90;93795.00;;;;7387414;19;20495;-74
2023/05/12 07:47:40;;;;;;;6.20;5.53;;;10.80;1.00;12.60;93780.00;;;;7383210;19;20478;-74
2023/05/12 07:50:15;;;;;;;7.10;6.18;;;11.10;1.00;13.20;93779.00;;;;7387651;19;20144;-72
2023/05/12 07:52:52;;;;;;;6.47;5.72;;;11.50;1.00;14.00;93772.00;;;;7387537;19;20157;-73
2023/05/12 07:55:26;;;;;;;5.93;4.63;;;12.00;99.90;14.50;93765.00;;;;7389151;19;20576;-74
2023/05/12 07:57:54;;;;;;;4.53;4.13;;;12.60;99.90;15.00;93767.00;;;;7387698;19;20212;-74
2023/05/12 08:01:40;;;;;;;5.03;3.92;;;13.10;99.90;15.50;93767.00;;;;7385217;19;20148;-73
2023/05/12 08:04:08;;;;;;;2.90;2.55;;;13.80;1.00;15.20;93770.00;;;;7386958;19;20180;-74
2023/05/12 08:06:41;;;;;;;3.58;2.80;;;14.10;99.90;15.10;93774.00;;;;7388598;19;20173;-73
2023/05/12 08:09:09;;;;;;;3.47;3.17;;;14.20;1.00;14.90;93761.00;;;;7387431;19;20133;-74
2023/05/12 08:11:43;;;;;;;3.60;3.30;;;14.10;1.00;14.40;93772.00;;;;7387967;19;20147;-74
2023/05/12 08:14:18;;;;;;;3.30;3.00;;;14.10;1.00;14.40;93752.00;;;;7387660;19;20148;-74
2023/05/12 08:16:45;;;;;;;3.30;3.00;;;14.10;99.90;14.30;93787.00;;;;7387608;19;20532;-73
2023/05/12 08:19:19;;;;;;;2.90;2.67;;;13.80;99.90;14.30;93789.00;;;;7387397;19;20211;-74
2023/05/12 08:21:54;;;;;;;4.00;3.65;;;13.70;1.00;14.00;93774.00;;;;7388519;19;20166;-73
2023/05/12 08:24:29;;;;;;;4.50;3.65;;;13.60;99.90;13.50;93764.00;;;;7389889;19;20129;-72
2023/05/12 08:26:56;;;;;;;4.10;3.72;;;13.50;99.90;13.80;93781.00;;;;7387895;19;20163;-72
2023/05/12 08:29:31;;;;;;;4.32;3.15;;;13.40;1.00;14.10;93763.00;;;;7386773;19;20152;-72
2023/05/12 08:32:05;;;;;;;3.83;3.53;;;13.50;1.00;14.50;93773.00;;;;7387772;19;20512;-72
2023/05/12 08:34:33;;;;;;;4.30;3.90;;;13.60;1.00;14.50;93774.00;;;;7385714;19;20136;-73
2023/05/12 08:37:08;;;;;;;6.03;4.07;;;13.80;99.90;14.70;93769.00;;;;7387255;19;20155;-73
2023/05/12 08:39:43;;;;;;;3.78;3.28;;;13.90;99.90;14.80;93771.00;;;;7387913;19;20139;-73
2023/05/12 08:42:41;;;;;;;3.05;2.75;;;14.10;99.90;14.90;93792.00;;;;7386663;19;20476;-74
2023/05/12 08:45:16;;;;;;;3.83;2.40;;;14.20;99.90;14.50;93773.00;;;;7386024;19;20566;-74
2023/05/12 08:47:54;;;;;;;4.05;3.35;;;14.10;99.90;14.10;93772.00;;;;7386752;19;20154;-73
2023/05/12 08:50:31;;;;;;;4.00;3.60;;;13.60;99.90;13.30;93798.00;;;;7387795;19;20223;-73
2023/05/12 08:53:11;;;;;;;3.83;3.42;;;13.30;99.90;13.20;93815.00;;;;7387872;19;20140;-73
2023/05/12 08:55:44;;;;;;;4.63;4.05;;;13.00;99.90;13.20;93812.00;;;;7387499;19;20608;-72
2023/05/12 08:58:38;;;;;;;3.88;3.58;;;12.80;99.90;13.00;93818.00;;;;7388741;19;20591;-72
2023/05/12 09:01:11;;;;;;;4.45;4.05;;;12.60;1.00;13.00;93803.00;;;;7386827;19;20167;-73
2023/05/12 09:03:58;;;;;;;4.32;3.38;;;12.50;1.00;13.00;93801.00;;;;7387921;19;20168;-72
2023/05/12 09:06:33;;;;;;;4.47;3.63;;;12.50;1.00;13.20;93811.00;;;;7387477;19;20139;-73
2023/05/12 09:09:16;;;;;;;3.88;3.50;;;12.50;1.00;13.20;93805.00;;;;7386977;19;20486;-71
2023/05/12 09:11:56;;;;;;;5.05;3.75;;;12.70;1.00;14.20;93775.00;;;;7387018;19;20165;-72
2023/05/12 09:14:35;;;;;;;6.68;3.58;;;13.00;1.00;15.60;93771.00;;;;7386872;19;20501;-72
2023/05/12 09:17:05;;;;;;;3.72;2.75;;;13.50;1.00;16.50;93787.00;;;;7385608;19;20614;-72
2023/05/12 09:19:40;;;;;;;4.00;2.28;;;14.20;99.90;17.30;93764.00;;;;7385070;19;20169;-72
2023/05/12 09:22:15;;;;;;;3.05;2.50;;;14.90;99.90;17.40;93735.00;;;;7387593;19;20163;-72
2023/05/12 09:24:49;;;;;;;3.05;2.67;;;15.60;37.10;18.60;93767.00;;;;7388457;19;20200;-73
2023/05/12 09:27:27;;;;;;;2.17;1.98;;;16.40;1.00;19.10;93770.00;;;;7387792;19;20493;-72
2023/05/12 09:30:00;;;;;;;4.35;1.77;;;17.10;1.00;18.60;93757.00;;;;7385091;19;20180;-73
2023/05/12 09:32:33;;;;;;;1.90;1.70;;;17.20;1.00;18.90;93776.00;;;;7386177;19;20173;-73
2023/05/12 09:35:12;;;;;;;1.77;1.67;;;17.50;1.00;18.90;93749.00;;;;7386470;19;20810;-72
2023/05/12 09:37:49;;;;;;;1.60;1.50;;;17.60;1.00;18.50;93783.00;;;;7384919;19;20608;-71
2023/05/12 09:40:23;;;;;;;1.67;1.42;;;17.60;1.00;17.50;93791.00;;;;7386318;19;20129;-71
2023/05/12 09:42:58;;;;;;;1.60;1.50;;;17.50;1.00;17.00;93794.00;;;;7387279;19;20517;-72
2023/05/12 09:45:37;;;;;;;1.30;1.20;;;17.20;1.00;16.20;93795.00;;;;7385860;19;20191;-72
2023/05/12 09:48:12;;;;;;;1.88;1.42;;;16.80;1.00;15.70;93789.00;;;;7386235;19;20153;-72
2023/05/12 09:50:51;;;;;;;1.60;1.50;;;16.10;1.00;15.40;93778.00;;;;7386056;19;20152;-72
2023/05/12 09:53:21;;;;;;;2.03;1.40;;;15.80;1.00;15.60;93786.00;;;;7384638;19;20133;-70
2023/05/12 09:55:55;;;;;;;1.35;1.25;;;15.50;1.00;15.90;93804.00;;;;7383956;19;20155;-72
2023/05/12 09:58:27;;;;;;;1.85;1.15;;;15.30;1.00;15.30;93794.00;;;;7384161;19;20144;-71
2023/05/12 10:01:02;;;;;;;1.40;1.30;;;15.10;1.00;14.60;93772.00;;;;7384548;19;20172;-72
2023/05/12 10:04:04;;;;;;;3.17;1.20;;;14.90;1.00;14.20;93805.00;;;;7384843;19;20178;-72
2023/05/12 10:06:44;;;;;;;1.40;1.30;;;14.50;1.00;14.10;93818.00;;;;7385439;19;20144;-72
2023/05/12 10:09:34;;;;;;;2.05;1.40;;;14.20;1.00;14.20;93819.00;;;;7384572;19;23850;-72
2023/05/12 10:12:03;;;;;;;1.50;1.40;;;13.90;1.70;14.10;93801.00;;;;7384460;19;20153;-72
2023/05/12 10:14:37;;;;;;;1.50;1.40;;;13.70;10.40;14.20;93825.00;;;;7383766;19;20600;-72
2023/05/12 10:17:08;;;;;;;1.50;1.40;;;13.50;75.00;13.60;93817.00;;;;7383722;19;20468;-72
2023/05/12 10:19:43;;;;;;;1.52;1.42;;;13.40;85.70;13.90;93824.00;;;;7383337;19;20624;-72
2023/05/12 10:22:14;;;;;;;1.40;1.30;;;13.30;99.90;14.00;93817.00;;;;7385975;19;20133;-72
2023/05/12 10:24:49;;;;;;;1.40;1.30;;;13.20;61.00;13.60;93824.00;;;;7385308;19;20152;-73
2023/05/12 10:27:18;;;;;;;1.77;1.30;;;13.20;99.90;13.80;93801.00;;;;7383990;19;20602;-72
2023/05/12 10:29:47;;;;;;;1.65;1.30;;;13.20;99.90;13.80;93823.00;;;;7383271;19;20189;-73
2023/05/12 10:32:20;;;;;;;1.30;1.20;;;13.20;99.90;13.60;93822.00;;;;7382912;19;20535;-71
2023/05/12 10:34:48;;;;;;;1.58;1.30;;;13.20;99.90;13.40;93827.00;;;;7381539;19;20169;-72
2023/05/12 10:37:22;;;;;;;1.88;1.30;;;13.10;99.90;13.50;93825.00;;;;7381431;19;20156;-72
2023/05/12 10:39:51;;;;;;;1.60;1.50;;;13.00;99.90;13.40;93819.00;;;;7384124;19;20167;-71
2023/05/12 10:42:24;;;;;;;1.80;1.70;;;12.70;99.90;13.30;93803.00;;;;7382167;19;20152;-73
2023/05/12 10:44:58;;;;;;;2.30;1.60;;;12.60;99.90;13.70;93811.00;;;;7381820;19;20148;-73
2023/05/12 10:47:36;;;;;;;1.90;1.80;;;12.70;99.90;13.90;93802.00;;;;7382363;19;20157;-71
2023/05/12 10:50:12;;;;;;;2.15;1.90;;;12.80;99.90;14.20;93807.00;;;;7382006;19;20125;-72
2023/05/12 10:52:55;;;;;;;2.25;1.77;;;12.90;99.90;14.20;93810.00;;;;7381393;19;20152;-72
2023/05/12 10:55:31;;;;;;;3.40;1.80;;;13.10;99.90;14.50;93813.00;;;;7382056;19;20150;-72
2023/05/12 10:58:10;;;;;;;1.60;1.50;;;13.30;99.90;14.60;93809.00;;;;7382176;19;20148;-72
2023/05/12 11:00:50;;;;;;;2.17;1.83;;;13.40;99.90;14.80;93795.00;;;;7382696;19;20225;-72
2023/05/12 11:03:39;;;;;;;1.73;1.48;;;13.70;75.60;14.80;93797.00;;;;7380364;19;20201;-71
2023/05/12 11:06:18;;;;;;;1.50;1.40;;;13.80;68.90;14.80;93798.00;;;;7386181;19;20167;-72
2023/05/12 11:08:52;;;;;;;1.60;1.50;;;14.00;48.60;15.00;93814.00;;;;7387920;19;20848;-72
2023/05/12 11:11:21;;;;;;;3.10;1.90;;;14.10;18.30;15.40;93814.00;;;;7388449;19;20156;-71
2023/05/12 11:13:57;;;;;;;1.85;1.60;;;14.30;27.60;15.80;93801.00;;;;7387693;19;20152;-71
2023/05/12 11:16:24;;;;;;;1.95;1.73;;;14.40;1.00;15.40;93816.00;;;;7387226;19;20161;-72
2023/05/12 11:19:05;;;;;;;1.70;1.60;;;14.60;1.00;15.60;93827.00;;;;7387992;19;20161;-72
2023/05/12 11:21:33;;;;;;;1.80;1.65;;;14.60;1.00;15.50;93814.00;;;;7387639;19;20156;-72
2023/05/12 11:24:09;;;;;;;1.60;1.45;;;14.70;1.00;15.80;93799.00;;;;7387907;19;20240;-72
2023/05/12 11:26:45;;;;;;;1.60;1.50;;;14.80;1.00;15.40;93810.00;;;;7387920;19;20186;-73